Time;durP1;ratioP1;P1;durP2;ratioP2;P2;SDS_P1;SDS_P2;PMS_P1;PMS_P2;Temp;Humidity;BMP_temperature;BMP_pressure;BME280_temperature;BME280_humidity;BME280_pressure;Samples;Min_cycle;Max_cycle;Signal;HPM_P1;HPM_P2
2021/08/29 00:01:59;;;;;;;6.72;3.67;;;;;;;16.83;60.41;99642.84;5032319;28;20045;-46
2021/08/29 00:04:25;;;;;;;6.00;3.53;;;;;;;16.88;59.97;99640.78;5040285;28;20041;-47
2021/08/29 00:06:50;;;;;;;5.55;3.78;;;;;;;16.93;60.16;99643.97;5034151;28;20042;-47
2021/08/29 00:09:16;;;;;;;8.80;4.10;;;;;;;16.94;59.81;99634.31;5051049;28;20052;-48
2021/08/29 00:11:42;;;;;;;9.07;3.75;;;;;;;16.92;59.54;99625.66;5037803;28;20069;-51
2021/08/29 00:14:08;;;;;;;6.90;3.78;;;;;;;16.88;59.49;99632.91;5032293;28;20041;-50
2021/08/29 00:16:34;;;;;;;5.00;3.35;;;;;;;16.84;59.65;99635.81;5031861;28;20065;-47
2021/08/29 00:19:00;;;;;;;7.53;4.20;;;;;;;16.79;59.48;99627.38;5032288;28;20614;-50
2021/08/29 00:21:26;;;;;;;9.70;4.22;;;;;;;16.73;60.02;99630.38;5031959;28;20037;-48
2021/08/29 00:23:52;;;;;;;7.78;4.10;;;;;;;16.69;60.29;99631.50;5030312;28;20049;-50
2021/08/29 00:26:18;;;;;;;7.45;4.07;;;;;;;16.67;60.22;99630.72;5031856;28;20640;-49
2021/08/29 00:28:43;;;;;;;6.70;4.03;;;;;;;16.64;60.28;99628.31;5063940;28;20038;-50
2021/08/29 00:31:09;;;;;;;7.22;4.40;;;;;;;16.63;60.37;99626.59;5031605;28;20041;-47
2021/08/29 00:33:35;;;;;;;6.55;3.90;;;;;;;16.62;60.43;99620.50;5014109;28;20091;-49
2021/08/29 00:36:01;;;;;;;6.00;3.90;;;;;;;16.51;59.93;99605.38;5031661;28;20429;-46
2021/08/29 00:38:26;;;;;;;7.55;4.10;;;;;;;16.55;60.05;99613.91;5047100;28;20366;-46
2021/08/29 00:40:52;;;;;;;11.80;4.18;;;;;;;16.50;60.30;99603.66;5031463;28;20041;-48
2021/08/29 00:43:20;;;;;;;7.65;4.15;;;;;;;16.49;60.37;99606.38;5033443;28;20103;-49
2021/08/29 00:45:46;;;;;;;9.02;4.90;;;;;;;16.48;60.40;99613.44;5037585;28;20041;-47
2021/08/29 00:48:12;;;;;;;7.93;4.47;;;;;;;16.47;60.41;99603.03;5031329;28;20485;-47
2021/08/29 00:50:41;;;;;;;8.93;5.15;;;;;;;16.36;60.46;99594.94;5046838;28;20088;-49
2021/08/29 00:53:07;;;;;;;7.85;5.07;;;;;;;16.42;60.37;99605.94;5030777;28;20072;-47
2021/08/29 00:55:34;;;;;;;8.25;4.55;;;;;;;16.40;60.72;99602.53;5030030;28;20505;-46
2021/08/29 00:58:02;;;;;;;;;;;;;;;16.38;61.01;99603.59;5030680;28;20564;-50
2021/08/29 01:00:30;;;;;;;9.73;5.53;;;;;;;16.33;60.90;99603.81;5030425;28;19935;-48
2021/08/29 01:02:59;;;;;;;9.55;5.18;;;;;;;16.32;60.97;99599.53;5028420;28;20037;-48
2021/08/29 01:05:41;;;;;;;9.50;5.25;;;;;;;16.22;61.05;99581.81;5029597;28;20460;-45
2021/08/29 01:08:38;;;;;;;10.07;5.60;;;;;;;16.28;61.29;99598.00;5049645;28;20190;-45
2021/08/29 01:11:10;;;;;;;8.75;5.38;;;;;;;16.25;61.35;99594.72;5016644;28;20095;-48
2021/08/29 01:13:45;;;;;;;8.95;5.00;;;;;;;16.23;61.42;99596.59;5014309;28;20043;-48
2021/08/29 01:16:15;;;;;;;9.50;5.25;;;;;;;16.23;61.64;99599.22;5030958;28;20052;-46
2021/08/29 01:18:52;;;;;;;12.52;5.78;;;;;;;16.23;62.08;99594.81;5014887;28;20069;-47
2021/08/29 01:21:24;;;;;;;7.95;5.57;;;;;;;16.24;62.05;99596.50;5029884;28;20053;-50
2021/08/29 01:23:53;;;;;;;10.30;5.97;;;;;;;16.26;61.84;99588.56;5029754;28;20044;-49
2021/08/29 01:26:19;;;;;;;;;;;;;;;16.27;61.57;99590.25;5013360;28;20468;-49
2021/08/29 01:28:48;;;;;;;10.40;5.95;;;;;;;16.28;61.88;99591.91;5062576;28;19917;-49
2021/08/29 01:31:14;;;;;;;11.48;5.80;;;;;;;16.22;61.72;99579.19;5028912;28;20132;-50
2021/08/29 01:33:40;;;;;;;13.75;5.70;;;;;;;16.30;61.53;99590.91;5030221;28;20132;-49
2021/08/29 01:36:12;;;;;;;9.80;5.85;;;;;;;16.31;61.52;99584.72;5029208;28;20086;-47
2021/08/29 01:38:38;;;;;;;10.88;5.75;;;;;;;16.31;61.85;99578.63;5013090;28;20081;-49
2021/08/29 01:41:09;;;;;;;12.13;6.25;;;;;;;16.30;61.84;99585.66;5029055;28;20478;-48
2021/08/29 01:43:35;;;;;;;11.18;6.28;;;;;;;16.28;61.47;99578.78;5032656;28;20036;-47
2021/08/29 01:46:02;;;;;;;10.55;6.45;;;;;;;16.29;61.72;99591.81;5028959;28;20049;-50
2021/08/29 01:48:31;;;;;;;12.20;6.53;;;;;;;16.21;61.97;99575.72;5028096;28;20136;-48
2021/08/29 01:51:05;;;;;;;9.05;6.05;;;;;;;16.29;62.26;99586.59;5012274;28;20467;-50
2021/08/29 01:53:38;;;;;;;10.07;6.07;;;;;;;16.28;62.14;99582.25;5028735;28;20065;-50
2021/08/29 01:56:13;;;;;;;13.23;5.55;;;;;;;16.28;61.87;99581.41;5062385;28;20425;-49
2021/08/29 01:58:50;;;;;;;8.57;5.55;;;;;;;16.30;61.90;99583.03;5015206;28;20040;-47
2021/08/29 02:01:16;;;;;;;10.77;6.35;;;;;;;16.30;61.58;99585.66;5046948;28;20543;-46
2021/08/29 02:03:43;;;;;;;13.57;6.70;;;;;;;16.26;61.63;99570.19;5015548;28;20557;-47
2021/08/29 02:06:36;;;;;;;13.90;6.00;;;;;;;16.37;61.72;99583.50;5014608;28;20052;-47
2021/08/29 02:09:04;;;;;;;11.02;6.28;;;;;;;16.39;61.49;99585.09;5045029;28;20045;-50
2021/08/29 02:11:39;;;;;;;10.13;6.28;;;;;;;16.42;61.52;99589.34;5026974;28;20099;-46
2021/08/29 02:14:10;;;;;;;8.30;5.70;;;;;;;16.40;61.68;99583.31;5028892;28;20151;-47
2021/08/29 02:16:40;;;;;;;9.68;5.75;;;;;;;16.37;61.79;99581.75;5030100;28;20045;-48
2021/08/29 02:19:06;;;;;;;8.35;5.70;;;;;;;16.33;62.13;99580.22;5048495;28;20048;-49
2021/08/29 02:21:33;;;;;;;11.75;5.95;;;;;;;16.29;61.84;99583.13;5027412;28;20473;-48
2021/08/29 02:24:01;;;;;;;8.75;5.43;;;;;;;16.17;62.06;99574.22;5019092;28;20110;-49
2021/08/29 02:26:27;;;;;;;13.05;6.25;;;;;;;16.27;62.48;99583.22;5032189;28;20508;-48
2021/08/29 02:29:03;;;;;;;10.52;5.90;;;;;;;16.22;62.12;99560.81;4999327;28;20041;-49
2021/08/29 02:31:31;;;;;;;12.18;5.65;;;;;;;16.34;61.85;99581.06;5035304;28;20045;-45
2021/08/29 02:33:58;;;;;;;10.77;6.00;;;;;;;16.39;61.75;99571.97;5039170;28;20053;-46
2021/08/29 02:36:24;;;;;;;10.23;6.05;;;;;;;16.43;61.68;99578.72;5028477;28;20095;-47
2021/08/29 02:38:52;;;;;;;10.88;5.90;;;;;;;16.44;61.81;99577.78;5010867;28;20042;-48
2021/08/29 02:41:20;;;;;;;9.98;5.95;;;;;;;16.50;61.95;99579.22;5028673;28;20127;-48
2021/08/29 02:43:51;;;;;;;9.95;5.47;;;;;;;16.50;61.95;99571.34;5012633;28;20056;-50
2021/08/29 02:46:17;;;;;;;15.80;5.80;;;;;;;16.46;62.00;99572.47;5011951;28;20049;-49
2021/08/29 02:48:44;;;;;;;10.93;5.95;;;;;;;16.40;62.35;99571.03;5028502;28;20049;-49
2021/08/29 02:51:13;;;;;;;10.27;5.38;;;;;;;16.35;62.22;99580.97;5012475;28;20080;-50
2021/08/29 02:53:43;;;;;;;10.32;5.68;;;;;;;16.34;62.46;99581.91;5045615;28;20115;-48
2021/08/29 02:56:11;;;;;;;9.95;6.05;;;;;;;16.34;62.36;99586.31;5061471;28;20052;-49
2021/08/29 02:58:39;;;;;;;9.70;5.60;;;;;;;16.33;62.39;99585.47;5012172;28;20046;-48
2021/08/29 03:01:15;;;;;;;13.07;6.30;;;;;;;16.34;62.34;99583.69;5031200;28;20049;-46
2021/08/29 03:04:07;;;;;;;12.52;6.45;;;;;;;16.33;62.46;99568.91;5041187;28;20058;-48
2021/08/29 03:06:36;;;;;;;12.32;6.05;;;;;;;16.32;62.80;99581.16;5028205;28;20059;-48
2021/08/29 03:09:03;;;;;;;45.80;10.13;;;;;;;16.28;62.96;99584.88;5038629;28;20045;-49
2021/08/29 03:11:30;;;;;;;11.23;5.95;;;;;;;16.16;63.12;99572.53;5028129;28;20093;-47
2021/08/29 03:13:58;;;;;;;11.55;6.65;;;;;;;16.17;63.10;99589.09;5028429;28;20457;-48
2021/08/29 03:16:24;;;;;;;12.38;6.30;;;;;;;16.10;63.63;99583.38;5030130;28;20579;-51
2021/08/29 03:18:51;;;;;;;12.88;6.50;;;;;;;15.99;63.55;99572.66;5015581;28;20088;-47
2021/08/29 03:21:43;;;;;;;11.00;6.45;;;;;;;16.08;64.10;99586.06;5024054;28;20047;-47
2021/08/29 03:24:09;;;;;;;12.10;6.07;;;;;;;16.08;64.11;99591.31;5032431;28;20132;-46
2021/08/29 03:26:35;;;;;;;11.23;6.30;;;;;;;16.08;64.35;99583.44;5008220;28;20067;-49
2021/08/29 03:29:12;;;;;;;12.05;6.63;;;;;;;16.10;64.16;99580.75;5047170;28;20054;-49
2021/08/29 03:31:39;;;;;;;9.85;6.32;;;;;;;16.13;64.17;99577.94;5034777;28;20524;-47
2021/08/29 03:34:06;;;;;;;13.20;6.75;;;;;;;16.16;63.98;99584.78;5072904;28;20552;-47
2021/08/29 03:36:34;;;;;;;15.30;7.10;;;;;;;16.17;63.87;99579.47;5071530;28;20503;-49
2021/08/29 03:39:03;;;;;;;12.25;6.40;;;;;;;16.19;64.17;99584.59;5037609;28;20535;-47
2021/08/29 03:41:30;;;;;;;11.02;6.75;;;;;;;16.22;63.80;99580.03;5039833;28;20048;-46
2021/08/29 03:43:57;;;;;;;10.93;6.60;;;;;;;16.24;64.01;99579.91;5067676;28;20041;-47
2021/08/29 03:46:23;;;;;;;11.93;6.93;;;;;;;16.27;63.81;99583.22;5030979;28;20052;-49
2021/08/29 03:48:49;;;;;;;12.70;6.40;;;;;;;16.28;63.67;99581.41;5031451;28;20099;-47
2021/08/29 03:51:19;;;;;;;16.65;6.90;;;;;;;16.28;63.89;99589.28;5014318;28;20397;-47
2021/08/29 03:53:45;;;;;;;10.98;6.80;;;;;;;16.28;64.26;99578.78;5031266;28;20083;-47
2021/08/29 03:56:11;;;;;;;11.50;7.25;;;;;;;16.28;63.80;99579.63;5031241;28;20428;-46
2021/08/29 03:58:40;;;;;;;11.15;6.68;;;;;;;16.18;64.01;99554.88;5062954;28;20043;-48
2021/08/29 04:01:08;;;;;;;14.18;6.40;;;;;;;16.34;63.97;99578.44;5032116;28;20212;-49
2021/08/29 04:03:34;;;;;;;11.32;6.78;;;;;;;16.36;63.71;99572.19;5031150;28;20045;-48
2021/08/29 04:06:12;;;;;;;16.73;7.53;;;;;;;16.36;63.96;99574.81;5079853;28;20042;-46
2021/08/29 04:08:40;;;;;;;17.67;7.65;;;;;;;16.38;64.16;99564.22;5027924;28;20037;-50
2021/08/29 04:11:08;;;;;;;13.52;7.57;;;;;;;16.40;64.28;99571.03;4997743;28;20452;-49
2021/08/29 04:13:36;;;;;;;17.20;6.82;;;;;;;16.43;63.82;99568.22;5063541;28;20040;-49
2021/08/29 04:16:20;;;;;;;10.93;6.78;;;;;;;16.45;63.96;99576.00;5050827;28;20040;-47
2021/08/29 04:18:51;;;;;;;16.55;7.47;;;;;;;16.47;64.17;99585.50;5037495;28;20041;-49
2021/08/29 04:21:22;;;;;;;17.77;8.80;;;;;;;16.52;63.95;99578.19;5042598;28;20110;-47
2021/08/29 04:23:49;;;;;;;;;;;;;;;16.59;64.05;99575.22;5033222;28;20402;-49
2021/08/29 04:26:15;;;;;;;49.13;8.70;;;;;;;16.62;63.75;99581.13;5045301;28;19974;-47
2021/08/29 04:28:42;;;;;;;15.85;8.15;;;;;;;16.68;63.85;99579.91;5060907;28;20516;-46
2021/08/29 04:31:12;;;;;;;13.75;7.28;;;;;;;16.69;63.01;99581.63;5050484;28;20405;-47
2021/08/29 04:33:53;;;;;;;17.05;7.53;;;;;;;16.77;62.78;99590.69;5032384;28;20513;-49
2021/08/29 04:36:37;;;;;;;15.27;9.13;;;;;;;16.86;62.30;99586.66;5030367;28;20047;-47
2021/08/29 04:39:11;;;;;;;15.63;7.43;;;;;;;16.94;62.46;99592.28;5030346;28;20033;-45
2021/08/29 04:41:38;;;;;;;15.95;8.00;;;;;;;16.99;62.70;99592.84;5030330;28;20060;-50
2021/08/29 04:44:07;;;;;;;14.07;7.97;;;;;;;17.04;61.65;99596.03;5045682;28;20049;-46
2021/08/29 04:46:35;;;;;;;19.25;8.05;;;;;;;17.10;61.10;99585.16;5049649;28;20131;-49
2021/08/29 04:49:01;;;;;;;17.33;7.80;;;;;;;17.14;60.97;99586.63;5050302;28;20041;-50
2021/08/29 04:51:29;;;;;;;33.67;8.88;;;;;;;17.21;60.87;99589.72;5050134;28;20041;-47
2021/08/29 04:53:54;;;;;;;13.93;7.60;;;;;;;17.25;60.56;99588.59;5040603;28;20048;-47
2021/08/29 04:56:20;;;;;;;16.67;8.05;;;;;;;17.33;60.36;99583.69;5037181;28;20037;-46
2021/08/29 04:58:46;;;;;;;11.50;7.20;;;;;;;17.50;60.21;99596.59;5028806;28;20053;-50
2021/08/29 05:01:12;;;;;;;15.20;7.35;;;;;;;17.60;59.51;99589.84;5031103;28;20078;-50
2021/08/29 05:03:38;;;;;;;14.93;7.65;;;;;;;17.59;59.21;99575.00;5047837;28;20099;-52
2021/08/29 05:06:05;;;;;;;13.10;7.70;;;;;;;17.88;58.67;99593.31;5030520;28;20405;-49
2021/08/29 05:08:32;;;;;;;13.70;7.88;;;;;;;17.97;58.41;99595.31;5042046;28;20055;-47
2021/08/29 05:10:57;;;;;;;14.25;7.60;;;;;;;18.04;58.44;99589.56;5034441;28;20135;-48
2021/08/29 05:13:23;;;;;;;13.52;7.75;;;;;;;18.07;58.25;99580.63;5041498;28;20503;-47
2021/08/29 05:15:49;;;;;;;13.50;7.80;;;;;;;18.10;57.62;99578.63;5029447;28;20442;-46
2021/08/29 05:18:16;;;;;;;18.38;8.00;;;;;;;18.21;57.32;99588.44;5017838;28;20133;-49
2021/08/29 05:21:02;;;;;;;15.75;8.52;;;;;;;18.34;57.02;99585.81;5037300;28;20045;-47
2021/08/29 05:23:54;;;;;;;11.05;7.55;;;;;;;18.41;56.53;99577.41;5031551;28;20048;-49
2021/08/29 05:26:29;;;;;;;14.32;7.93;;;;;;;18.48;56.33;99581.28;5031162;28;20094;-46
2021/08/29 05:28:56;;;;;;;14.57;7.60;;;;;;;18.56;56.35;99578.19;5028526;28;20471;-48
2021/08/29 05:31:23;;;;;;;17.73;7.90;;;;;;;18.73;56.80;99575.22;5028858;28;20521;-47
2021/08/29 05:33:49;;;;;;;15.30;7.97;;;;;;;18.92;56.73;99578.25;5048324;28;20052;-49
2021/08/29 05:36:15;;;;;;;12.63;7.78;;;;;;;19.09;56.13;99578.88;5019802;28;20427;-49
2021/08/29 05:38:41;;;;;;;17.20;8.30;;;;;;;19.12;55.40;99574.22;5037928;28;20094;-48
2021/08/29 05:41:19;;;;;;;18.40;7.63;;;;;;;19.12;54.68;99565.44;5056418;28;20252;-46
2021/08/29 05:44:05;;;;;;;13.00;8.43;;;;;;;19.09;54.24;99571.81;5070188;28;20055;-45
2021/08/29 05:46:35;;;;;;;10.98;7.03;;;;;;;19.17;53.99;99579.16;5057215;28;20048;-45
2021/08/29 05:49:01;;;;;;;14.48;7.90;;;;;;;19.33;53.89;99579.72;5033788;28;20098;-46
2021/08/29 05:51:30;;;;;;;12.00;7.50;;;;;;;19.38;53.71;99591.63;5028551;28;20517;-45
2021/08/29 05:53:55;;;;;;;13.30;7.55;;;;;;;19.40;53.44;99594.19;5034466;28;20090;-44
2021/08/29 05:56:22;;;;;;;13.43;7.85;;;;;;;19.45;53.30;99590.28;5045587;28;20064;-46
2021/08/29 05:58:48;;;;;;;19.95;7.63;;;;;;;19.48;53.29;99578.66;5066406;28;20126;-45
2021/08/29 06:01:15;;;;;;;16.77;8.38;;;;;;;19.78;53.17;99589.59;5046821;28;20518;-49
2021/08/29 06:03:44;;;;;;;17.27;8.15;;;;;;;19.95;52.67;99584.88;5048358;28;20548;-46
2021/08/29 06:06:23;;;;;;;16.00;8.68;;;;;;;20.09;52.02;99576.78;5013385;28;20090;-47
2021/08/29 06:08:50;;;;;;;18.88;8.27;;;;;;;20.56;50.63;99574.03;5045883;28;20041;-46
2021/08/29 06:11:17;;;;;;;20.88;8.55;;;;;;;21.28;49.38;99578.97;5048533;28;20061;-44
2021/08/29 06:13:43;;;;;;;16.35;7.97;;;;;;;22.20;47.00;99575.78;5044519;28;20088;-49
2021/08/29 06:16:08;;;;;;;17.52;8.90;;;;;;;23.18;45.46;99571.72;5027960;28;20531;-47
2021/08/29 06:18:34;;;;;;;17.30;8.80;;;;;;;23.90;43.75;99574.94;5028694;28;20571;-45
2021/08/29 06:21:00;;;;;;;13.90;8.40;;;;;;;23.87;43.54;99574.34;5028769;28;20041;-47
2021/08/29 06:23:26;;;;;;;15.98;8.48;;;;;;;23.22;44.51;99576.63;5028753;28;20067;-46
2021/08/29 06:26:10;;;;;;;20.20;8.48;;;;;;;22.54;45.85;99579.91;5030270;28;20057;-47
2021/08/29 06:28:55;;;;;;;17.30;8.15;;;;;;;23.61;43.20;99568.75;5029762;28;20496;-45
2021/08/29 06:31:39;;;;;;;17.33;8.02;;;;;;;25.02;41.10;99574.16;5030557;28;20041;-44
2021/08/29 06:34:23;;;;;;;13.32;7.93;;;;;;;26.05;38.16;99563.97;5033494;28;20044;-45
2021/08/29 06:36:49;;;;;;;20.45;9.40;;;;;;;26.96;36.58;99578.63;5028206;28;20045;-45
2021/08/29 06:39:16;;;;;;;16.90;8.68;;;;;;;27.54;35.20;99585.03;5029230;28;20049;-45
2021/08/29 06:41:42;;;;;;;16.45;8.50;;;;;;;28.11;33.87;99578.75;5027827;28;20076;-49
2021/08/29 06:44:11;;;;;;;18.63;9.13;;;;;;;28.79;32.62;99573.03;5012814;28;20468;-45
2021/08/29 06:46:55;;;;;;;16.25;8.60;;;;;;;29.65;32.23;99586.41;5028730;28;20525;-46
2021/08/29 06:49:40;;;;;;;15.55;8.45;;;;;;;30.52;30.87;99586.94;5028936;28;20122;-46
2021/08/29 06:52:28;;;;;;;15.40;8.68;;;;;;;31.27;29.47;99582.25;5054525;28;20193;-46
2021/08/29 06:55:17;;;;;;;15.85;9.32;;;;;;;32.00;28.89;99570.44;5060040;28;20041;-46
2021/08/29 06:58:01;;;;;;;14.57;8.10;;;;;;;32.86;27.56;99569.31;5033067;28;20034;-46
2021/08/29 07:00:27;;;;;;;18.00;9.23;;;;;;;33.43;26.46;99576.22;5031896;28;20454;-45
2021/08/29 07:02:56;;;;;;;13.23;8.60;;;;;;;33.92;25.78;99567.84;5038467;28;20132;-44
2021/08/29 07:05:22;;;;;;;18.10;10.38;;;;;;;34.11;25.58;99577.84;5038761;28;20045;-46
2021/08/29 07:08:07;;;;;;;17.45;9.27;;;;;;;34.78;24.63;99574.09;5044922;28;20662;-48
2021/08/29 07:10:41;;;;;;;18.73;10.07;;;;;;;35.11;23.47;99574.00;5049870;28;20072;-45
2021/08/29 07:13:39;;;;;;;;;;;;;;;35.81;23.46;99567.66;5038825;28;20099;-47
2021/08/29 07:16:08;;;;;;;19.70;10.40;;;;;;;36.66;22.76;99568.84;5041141;28;19920;-46
2021/08/29 07:18:34;;;;;;;25.60;10.65;;;;;;;37.05;21.67;99558.63;5015112;28;20037;-44
2021/08/29 07:21:37;;;;;;;23.92;10.30;;;;;;;35.53;23.15;99550.94;5021908;28;20037;-48
2021/08/29 07:24:22;;;;;;;16.98;9.70;;;;;;;34.03;25.18;99551.03;5033875;28;20041;-47
2021/08/29 07:27:07;;;;;;;23.33;11.73;;;;;;;32.73;26.44;99539.59;5042001;28;20048;-47
2021/08/29 07:29:51;;;;;;;18.95;9.52;;;;;;;32.18;27.28;99543.97;5040554;28;20040;-45
2021/08/29 07:32:43;;;;;;;13.75;9.63;;;;;;;31.93;27.49;99548.88;5041768;28;20041;-45
2021/08/29 07:35:09;;;;;;;16.95;9.38;;;;;;;32.49;26.60;99554.34;5047145;28;20048;-46
2021/08/29 07:37:35;;;;;;;14.52;9.50;;;;;;;31.67;27.58;99543.22;5047341;28;20069;-47
2021/08/29 07:40:02;;;;;;;14.90;8.88;;;;;;;30.48;28.95;99548.91;5050574;28;20072;-48
2021/08/29 07:42:30;;;;;;;18.77;9.38;;;;;;;31.37;28.34;99541.63;5044999;28;20084;-49
2021/08/29 07:44:56;;;;;;;17.95;9.15;;;;;;;33.05;27.00;99551.56;5043315;28;20037;-46
2021/08/29 07:47:26;;;;;;;17.52;9.88;;;;;;;34.60;25.41;99546.91;5045363;28;20366;-44
2021/08/29 07:49:52;;;;;;;20.80;9.75;;;;;;;35.51;23.62;99529.53;5047911;28;20044;-44
2021/08/29 07:52:18;;;;;;;16.13;9.38;;;;;;;36.01;22.97;99538.56;5030154;28;20045;-45
2021/08/29 07:55:22;;;;;;;18.60;9.85;;;;;;;36.70;21.95;99537.53;5024679;28;20450;-51
2021/08/29 07:58:08;;;;;;;17.40;9.68;;;;;;;37.31;21.92;99528.50;5028255;28;20037;-48
2021/08/29 08:00:34;;;;;;;16.85;9.75;;;;;;;37.99;20.90;99537.09;5036334;28;20552;-49
2021/08/29 08:03:19;;;;;;;15.90;9.88;;;;;;;38.25;20.74;99538.59;5047609;28;20060;-49
2021/08/29 08:06:06;;;;;;;18.23;10.40;;;;;;;38.69;20.06;99534.44;5048944;28;20517;-46
2021/08/29 08:08:54;;;;;;;20.98;9.80;;;;;;;39.30;19.98;99527.56;5041450;28;20525;-47
2021/08/29 08:11:38;;;;;;;17.52;9.95;;;;;;;39.59;19.78;99517.50;5043047;28;20618;-47
2021/08/29 08:14:06;;;;;;;19.38;9.88;;;;;;;39.68;19.32;99540.53;5050248;28;20580;-48
2021/08/29 08:16:33;;;;;;;16.15;10.23;;;;;;;39.60;18.98;99551.84;5034132;28;20029;-50
2021/08/29 08:19:03;;;;;;;19.40;9.45;;;;;;;39.02;19.78;99538.41;5047952;28;20056;-47
2021/08/29 08:21:29;;;;;;;18.10;10.38;;;;;;;39.04;19.91;99530.84;5046861;28;20500;-49
2021/08/29 08:24:14;;;;;;;16.55;9.20;;;;;;;39.06;19.59;99532.25;5046644;28;20432;-46
2021/08/29 08:26:58;;;;;;;13.98;9.40;;;;;;;39.20;18.95;99511.06;5051007;28;20482;-49
2021/08/29 08:29:26;;;;;;;19.77;9.93;;;;;;;39.18;19.26;99491.41;5043620;28;20132;-45
2021/08/29 08:31:54;;;;;;;17.75;10.30;;;;;;;39.63;19.25;99513.22;5049147;28;20047;-48
2021/08/29 08:34:46;;;;;;;15.43;9.45;;;;;;;39.41;18.97;99518.56;5054524;28;20068;-48
2021/08/29 08:37:24;;;;;;;18.45;9.18;;;;;;;39.66;19.07;99516.31;5043289;28;20040;-50
2021/08/29 08:40:15;;;;;;;22.02;9.18;;;;;;;39.43;19.43;99512.84;5049440;28;20067;-45
2021/08/29 08:42:46;;;;;;;17.50;8.65;;;;;;;38.88;19.54;99511.47;5047281;28;20704;-45
2021/08/29 08:45:31;;;;;;;12.52;9.98;;;;;;;39.07;19.50;99508.59;5046977;28;20094;-45
2021/08/29 08:48:15;;;;;;;15.68;9.25;;;;;;;38.58;19.91;99498.06;5037874;28;20060;-46
2021/08/29 08:51:00;;;;;;;13.68;9.07;;;;;;;38.38;20.10;99504.91;5046245;28;20128;-47
2021/08/29 08:53:58;;;;;;;14.45;9.55;;;;;;;38.88;19.77;99497.88;5035920;28;20134;-47
2021/08/29 08:56:56;;;;;;;14.35;9.75;;;;;;;38.90;19.29;99501.22;5054303;28;20063;-46
2021/08/29 08:59:43;;;;;;;15.85;8.90;;;;;;;38.19;19.91;99495.22;5042957;28;20040;-47
2021/08/29 09:02:29;;;;;;;11.02;8.20;;;;;;;37.37;21.01;99505.06;5046904;28;20045;-45
2021/08/29 09:05:13;;;;;;;18.67;9.13;;;;;;;37.23;21.17;99498.97;5046319;28;20041;-48
2021/08/29 09:07:41;;;;;;;13.10;9.20;;;;;;;36.56;22.08;99492.66;5046313;28;20516;-46
2021/08/29 09:10:07;;;;;;;13.98;9.75;;;;;;;36.84;21.71;99494.88;5035547;28;20056;-47
2021/08/29 09:12:34;;;;;;;11.65;7.57;;;;;;;37.48;21.75;99501.53;5037728;28;20053;-58
2021/08/29 09:15:00;;;;;;;13.50;9.60;;;;;;;37.78;21.43;99498.81;5039920;28;20040;-64
2021/08/29 09:17:37;;;;;;;18.67;9.05;;;;;;;37.86;20.85;99488.44;5036548;28;20128;-66
2021/08/29 09:20:17;;;;;;;14.27;8.48;;;;;;;37.36;21.57;99495.25;5048836;28;20052;-63
2021/08/29 09:22:46;;;;;;;16.90;8.48;;;;;;;36.38;22.33;99488.03;5036593;28;20098;-64
2021/08/29 09:25:43;;;;;;;13.67;8.57;;;;;;;37.02;22.29;99488.59;5033652;28;20521;-64
2021/08/29 09:28:35;;;;;;;14.07;8.10;;;;;;;37.78;21.58;99498.81;5054786;28;20527;-63
2021/08/29 09:31:10;;;;;;;17.48;8.32;;;;;;;37.80;21.40;99499.41;5067164;28;20071;-63
2021/08/29 09:33:37;;;;;;;10.43;7.33;;;;;;;38.17;21.70;99509.88;5048974;28;20125;-64
2021/08/29 09:36:09;;;;;;;12.85;7.93;;;;;;;37.36;22.36;99503.41;5052614;28;20303;-65
2021/08/29 09:39:19;;;;;;;17.08;7.78;;;;;;;36.44;22.75;99514.25;5060410;28;20439;-64
2021/08/29 09:42:17;;;;;;;13.27;8.88;;;;;;;35.69;23.46;99507.19;5066448;28;20128;-64
2021/08/29 09:44:44;;;;;;;17.10;9.40;;;;;;;35.11;24.39;99509.13;5070459;28;20135;-64
2021/08/29 09:47:29;;;;;;;13.63;8.45;;;;;;;35.45;23.82;99499.81;5065732;28;20043;-61
2021/08/29 09:50:13;;;;;;;14.38;8.63;;;;;;;37.18;22.05;99518.66;5070311;28;20044;-65
2021/08/29 09:52:46;;;;;;;27.20;10.68;;;;;;;37.79;21.77;99533.84;5059723;28;20047;-64
2021/08/29 09:55:36;;;;;;;13.18;7.93;;;;;;;36.06;23.08;99543.31;5033787;28;20048;-63
2021/08/29 09:58:31;;;;;;;17.38;8.27;;;;;;;35.10;24.47;99518.28;5053645;28;20086;-65
2021/08/29 10:01:30;;;;;;;19.00;8.77;;;;;;;34.68;24.84;99506.13;5061995;28;20037;-64
2021/08/29 10:04:19;;;;;;;14.38;8.88;;;;;;;34.92;24.56;99500.03;5067337;28;20044;-63
2021/08/29 10:06:48;;;;;;;14.02;8.45;;;;;;;35.11;24.75;99501.03;5052977;28;20485;-64
2021/08/29 10:09:24;;;;;;;13.10;8.50;;;;;;;35.54;24.11;99495.81;5064034;28;20075;-64
2021/08/29 10:11:56;;;;;;;15.55;9.10;;;;;;;36.64;22.88;99486.97;5058016;28;20520;-63
2021/08/29 10:14:22;;;;;;;17.48;8.60;;;;;;;37.52;22.27;99492.72;5016256;28;20437;-63
2021/08/29 10:17:20;;;;;;;11.43;7.43;;;;;;;38.67;21.24;99486.81;5030960;28;20046;-63
2021/08/29 10:20:07;;;;;;;15.10;8.60;;;;;;;39.08;20.28;99486.63;5039075;28;20088;-63
2021/08/29 10:22:51;;;;;;;17.85;8.57;;;;;;;39.41;20.40;99494.06;5066677;28;20074;-62
2021/08/29 10:25:18;;;;;;;12.30;8.60;;;;;;;38.59;20.55;99488.00;5068047;28;20049;-62
2021/08/29 10:28:06;;;;;;;14.57;7.85;;;;;;;37.68;21.47;99499.41;5063290;28;20437;-62
2021/08/29 10:30:45;;;;;;;11.55;7.70;;;;;;;36.93;22.71;99496.22;5044897;28;20183;-63
2021/08/29 10:33:30;;;;;;;13.40;8.52;;;;;;;36.21;23.84;99491.56;5061766;28;20056;-63
2021/08/29 10:36:07;;;;;;;15.80;9.05;;;;;;;36.43;23.38;99492.81;5067168;28;20036;-64
2021/08/29 10:38:51;;;;;;;16.27;8.98;;;;;;;37.47;22.60;99489.88;5060913;28;20040;-61
2021/08/29 10:41:23;;;;;;;15.63;9.68;;;;;;;38.21;21.84;99498.53;5069679;28;20036;-64
2021/08/29 10:43:53;;;;;;;13.32;7.82;;;;;;;38.26;21.42;99502.22;5065910;28;20082;-63
2021/08/29 10:46:43;;;;;;;16.90;8.18;;;;;;;37.89;21.66;99507.00;5068017;28;20044;-62
2021/08/29 10:49:28;;;;;;;12.68;7.78;;;;;;;35.94;23.99;99490.94;5052213;28;20087;-63
2021/08/29 10:51:55;;;;;;;18.77;8.27;;;;;;;34.59;25.41;99488.50;5046620;28;20076;-62
2021/08/29 10:54:21;;;;;;;10.93;7.63;;;;;;;33.61;26.78;99485.63;5067149;28;20044;-62
2021/08/29 10:56:48;;;;;;;13.40;8.10;;;;;;;32.82;28.16;99494.50;5068065;28;20063;-63
2021/08/29 10:59:23;;;;;;;12.15;7.30;;;;;;;32.76;28.28;99496.13;5065037;28;20050;-63
2021/08/29 11:01:54;;;;;;;15.38;8.40;;;;;;;31.82;29.72;99494.78;5063347;28;20040;-63
2021/08/29 11:04:35;;;;;;;;;;;;;;;30.92;30.77;99492.53;5028505;28;20037;-64
2021/08/29 11:07:06;;;;;;;16.98;7.88;;;;;;;29.91;32.58;99483.38;5025130;28;19935;-65
2021/08/29 11:09:35;;;;;;;18.35;8.70;;;;;;;29.58;33.33;99494.34;5046805;28;20516;-62
2021/08/29 11:12:04;;;;;;;15.82;8.02;;;;;;;29.43;33.81;99496.94;5042640;28;20519;-64
2021/08/29 11:14:41;;;;;;;12.77;7.65;;;;;;;29.20;34.40;99497.91;5049801;28;20060;-64
2021/08/29 11:17:17;;;;;;;19.83;8.40;;;;;;;28.57;35.44;99501.50;5067995;28;20203;-63
2021/08/29 11:20:02;;;;;;;13.15;7.70;;;;;;;28.22;36.13;99492.06;5052705;28;20044;-64
2021/08/29 11:22:54;;;;;;;17.98;8.40;;;;;;;28.00;36.79;99495.41;5047977;28;20596;-63
2021/08/29 11:25:24;;;;;;;15.32;7.70;;;;;;;27.79;37.11;99486.03;5048791;28;20056;-62
2021/08/29 11:28:03;;;;;;;12.65;6.47;;;;;;;27.58;37.57;99493.72;5049907;28;20505;-61
2021/08/29 11:30:36;;;;;;;13.10;7.70;;;;;;;27.74;37.83;99496.41;5044952;28;20135;-58
2021/08/29 11:33:12;;;;;;;19.13;8.13;;;;;;;27.95;37.52;99497.75;5044930;28;20052;-59
2021/08/29 11:35:49;;;;;;;12.80;7.63;;;;;;;28.66;36.48;99492.44;5048387;28;20041;-61
2021/08/29 11:38:37;;;;;;;17.75;7.55;;;;;;;29.08;35.95;99502.84;5050277;28;20589;-60
2021/08/29 11:41:12;;;;;;;13.07;7.43;;;;;;;28.84;36.45;99506.44;5050119;28;20040;-60
2021/08/29 11:43:44;;;;;;;12.50;7.88;;;;;;;28.38;37.37;99508.06;5051115;28;20074;-60
2021/08/29 11:46:17;;;;;;;16.08;8.32;;;;;;;28.32;37.77;99494.53;5058967;28;20500;-60
2021/08/29 11:49:07;;;;;;;20.00;7.57;;;;;;;28.23;37.88;99478.53;5042831;28;20049;-63
2021/08/29 11:51:42;;;;;;;13.90;7.63;;;;;;;28.41;37.50;99491.69;5045259;28;20053;-61
2021/08/29 11:54:40;;;;;;;19.05;7.65;;;;;;;28.12;37.95;99491.41;5030848;28;20136;-61
2021/08/29 11:57:15;;;;;;;17.98;8.20;;;;;;;27.92;38.65;99490.91;5035488;28;20420;-62